createdAt,value
2018-04-29T00:02:21.872Z,2.90
2018-04-29T00:04:49.423Z,3.60
2018-04-29T00:07:16.989Z,3.20
2018-04-29T00:09:45.303Z,3.73
2018-04-29T00:12:12.869Z,3.30
2018-04-29T00:14:40.412Z,3.30
2018-04-29T00:17:07.982Z,3.53
2018-04-29T00:19:35.529Z,3.60
2018-04-29T00:22:03.094Z,3.50
2018-04-29T00:24:30.637Z,3.87
2018-04-29T00:26:58.204Z,3.23
2018-04-29T00:29:25.745Z,3.90
2018-04-29T00:31:54.077Z,4.20
2018-04-29T00:34:21.620Z,3.70
2018-04-29T00:36:49.186Z,3.63
2018-04-29T00:39:16.744Z,3.80
2018-04-29T00:41:44.312Z,3.60
2018-04-29T00:44:11.861Z,3.30
2018-04-29T00:46:39.425Z,3.07
2018-04-29T00:49:07.148Z,3.80
2018-04-29T00:51:47.516Z,4.13
2018-04-29T00:54:15.145Z,3.10
2018-04-29T00:56:43.480Z,3.10
2018-04-29T00:59:11.024Z,3.40
2018-04-29T01:01:38.589Z,4.80
2018-04-29T01:04:06.129Z,4.27
2018-04-29T01:06:33.696Z,4.00
2018-04-29T01:09:01.236Z,3.63
2018-04-29T01:11:28.804Z,4.10
2018-04-29T01:13:56.349Z,3.53
2018-04-29T01:16:23.915Z,4.10
2018-04-29T01:18:51.460Z,3.73
2018-04-29T01:21:19.793Z,3.50
2018-04-29T01:23:47.340Z,2.60
2018-04-29T01:26:14.909Z,3.50
2018-04-29T01:28:43.224Z,4.03
2018-04-29T01:31:10.800Z,3.63
2018-04-29T01:33:38.347Z,4.07
2018-04-29T01:36:06.679Z,3.47
2018-04-29T01:38:34.220Z,3.53
2018-04-29T01:41:01.791Z,3.83
2018-04-29T01:43:30.100Z,3.20
2018-04-29T01:45:57.645Z,3.67
2018-04-29T01:48:25.225Z,3.70
2018-04-29T01:50:53.535Z,4.23
2018-04-29T01:53:21.101Z,3.60
2018-04-29T01:55:48.662Z,3.67
2018-04-29T01:58:16.229Z,3.60
2018-04-29T02:00:43.772Z,3.60
2018-04-29T02:03:11.337Z,3.63
2018-04-29T02:05:38.878Z,3.43
2018-04-29T02:08:06.443Z,3.33
2018-04-29T02:10:33.989Z,3.97
2018-04-29T02:13:02.413Z,3.63
2018-04-29T02:15:30.104Z,3.50
2018-04-29T02:17:57.672Z,4.00
2018-04-29T02:20:26.196Z,4.57
2018-04-29T02:22:53.760Z,3.30
2018-04-29T02:25:21.304Z,4.23
2018-04-29T02:27:48.873Z,4.43
2018-04-29T02:30:16.413Z,4.47
2018-04-29T02:32:43.980Z,4.60
2018-04-29T02:35:11.515Z,3.47
2018-04-29T02:37:39.844Z,3.80
2018-04-29T02:40:07.391Z,4.40
2018-04-29T02:42:34.964Z,3.63
2018-04-29T02:45:02.518Z,5.00
2018-04-29T02:47:30.091Z,3.67
2018-04-29T02:49:57.641Z,4.40
2018-04-29T02:52:25.595Z,3.30
2018-04-29T02:54:53.137Z,3.73
2018-04-29T02:57:20.714Z,4.30
2018-04-29T02:59:48.262Z,4.47
2018-04-29T03:02:15.828Z,3.87
2018-04-29T03:04:43.374Z,3.87
2018-04-29T03:07:10.933Z,3.53
2018-04-29T03:09:38.512Z,4.00
2018-04-29T03:12:06.063Z,3.70
2018-04-29T03:14:33.624Z,4.03
2018-04-29T03:17:01.169Z,3.90
2018-04-29T03:19:28.744Z,5.53
2018-04-29T03:21:56.289Z,4.50
2018-04-29T03:24:23.852Z,5.63
2018-04-29T03:26:51.398Z,4.23
2018-04-29T03:29:18.965Z,3.80
2018-04-29T03:31:46.512Z,4.10
2018-04-29T03:34:14.085Z,4.40
2018-04-29T03:36:41.629Z,3.60
2018-04-29T03:39:09.200Z,3.33
2018-04-29T03:41:36.741Z,4.87
2018-04-29T03:44:04.303Z,4.00
2018-04-29T03:46:31.844Z,4.90
2018-04-29T03:48:59.416Z,3.70
2018-04-29T03:51:26.956Z,3.77
2018-04-29T03:53:55.288Z,4.43
2018-04-29T03:56:22.949Z,3.70
2018-04-29T03:59:02.393Z,2.87
2018-04-29T04:01:51.281Z,4.43
2018-04-29T04:04:09.248Z,3.60
2018-04-29T04:06:37.889Z,3.80
2018-04-29T04:09:05.452Z,3.37
2018-04-29T04:11:32.996Z,3.87
2018-04-29T04:14:00.565Z,4.30
2018-04-29T04:16:28.104Z,3.70
2018-04-29T04:18:55.667Z,4.90
2018-04-29T04:21:23.208Z,3.73
2018-04-29T04:23:50.852Z,4.20
2018-04-29T04:26:18.348Z,6.00
2018-04-29T04:28:45.917Z,7.90
2018-04-29T04:31:13.460Z,6.40
2018-04-29T04:33:41.029Z,5.20
2018-04-29T04:36:08.569Z,4.97
2018-04-29T04:38:36.151Z,5.50
2018-04-29T04:41:03.695Z,4.30
2018-04-29T04:43:31.268Z,4.20
2018-04-29T04:45:58.808Z,4.80
2018-04-29T04:48:26.605Z,3.73
2018-04-29T04:50:55.124Z,4.87
2018-04-29T04:53:22.672Z,4.83
2018-04-29T04:55:50.243Z,4.40
2018-04-29T04:58:17.785Z,5.40
2018-04-29T05:00:45.349Z,4.93
2018-04-29T05:03:12.897Z,4.80
2018-04-29T05:05:40.470Z,5.63
2018-04-29T05:08:08.012Z,6.83
2018-04-29T05:10:35.576Z,7.10
2018-04-29T05:13:03.170Z,7.93
2018-04-29T05:15:30.741Z,7.70
2018-04-29T05:17:58.285Z,7.60
2018-04-29T05:20:25.852Z,9.37
2018-04-29T05:22:53.400Z,9.80
2018-04-29T05:25:20.976Z,12.97
2018-04-29T05:27:48.528Z,10.57
2018-04-29T05:30:16.148Z,10.67
2018-04-29T05:32:43.701Z,12.53
2018-04-29T05:35:11.267Z,11.00
2018-04-29T05:37:38.821Z,16.00
2018-04-29T05:40:06.400Z,13.07
2018-04-29T05:42:33.948Z,13.03
2018-04-29T05:45:01.528Z,12.27
2018-04-29T05:47:29.074Z,11.70
2018-04-29T05:49:56.682Z,11.73
2018-04-29T05:52:24.216Z,13.30
2018-04-29T05:54:51.792Z,12.83
2018-04-29T05:57:19.348Z,13.73
2018-04-29T05:59:46.931Z,13.30
2018-04-29T06:02:15.246Z,12.47
2018-04-29T06:04:42.812Z,13.30
2018-04-29T06:07:10.363Z,13.37
2018-04-29T06:09:37.944Z,13.57
2018-04-29T06:12:05.501Z,13.63
2018-04-29T06:14:33.044Z,12.40
2018-04-29T06:17:02.277Z,12.60
2018-04-29T06:19:29.827Z,11.63
2018-04-29T06:21:57.400Z,10.40
2018-04-29T06:24:24.944Z,12.00
2018-04-29T06:26:52.521Z,13.10
2018-04-29T06:29:20.077Z,12.60
2018-04-29T06:31:48.621Z,12.93
2018-04-29T06:34:16.712Z,12.60
2018-04-29T06:36:45.053Z,14.10
2018-04-29T06:39:12.602Z,11.27
2018-04-29T06:41:40.170Z,12.30
2018-04-29T06:44:07.716Z,13.70
2018-04-29T06:46:35.285Z,12.53
2018-04-29T06:49:02.832Z,11.60
2018-04-29T06:51:30.400Z,12.80
2018-04-29T06:53:57.949Z,14.00
2018-04-29T06:56:25.525Z,10.57
2018-04-29T06:58:53.072Z,12.20
2018-04-29T07:01:20.647Z,10.93
2018-04-29T07:03:48.252Z,12.37
2018-04-29T07:06:15.828Z,13.80
2018-04-29T07:08:44.142Z,17.00
2018-04-29T07:11:11.716Z,11.07
2018-04-29T07:13:39.263Z,12.40
2018-04-29T07:16:06.834Z,11.37
2018-04-29T07:18:34.384Z,9.87
2018-04-29T07:21:01.951Z,9.27
2018-04-29T07:23:29.497Z,9.80
2018-04-29T07:25:57.067Z,9.27
2018-04-29T07:28:24.896Z,8.50
2018-04-29T07:30:52.470Z,10.00
2018-04-29T07:33:20.139Z,9.80
2018-04-29T07:35:47.711Z,9.70
2018-04-29T07:38:15.253Z,9.47
2018-04-29T07:40:42.829Z,8.37
2018-04-29T07:43:10.373Z,7.50
2018-04-29T07:45:37.957Z,6.87
2018-04-29T07:48:05.505Z,8.70
2018-04-29T07:50:33.048Z,7.70
2018-04-29T07:53:00.612Z,8.20
2018-04-29T07:55:28.153Z,7.60
2018-04-29T07:57:55.725Z,7.73
2018-04-29T08:00:23.284Z,7.70
2018-04-29T08:02:50.861Z,8.00
2018-04-29T08:05:18.409Z,7.13
2018-04-29T08:07:45.972Z,5.37
2018-04-29T08:10:13.785Z,7.03
2018-04-29T08:12:42.120Z,9.13
2018-04-29T08:15:09.671Z,7.00
2018-04-29T08:17:37.240Z,7.13
2018-04-29T08:20:05.556Z,6.77
2018-04-29T08:22:33.133Z,7.40
2018-04-29T08:25:00.684Z,6.93
2018-04-29T08:27:29.074Z,6.93
2018-04-29T08:29:56.587Z,7.87
2018-04-29T08:32:24.161Z,7.13
2018-04-29T08:34:51.704Z,7.00
2018-04-29T08:37:19.272Z,6.47
2018-04-29T08:39:46.815Z,6.53
2018-04-29T08:42:14.389Z,5.70
2018-04-29T08:44:41.932Z,6.20
2018-04-29T08:47:09.496Z,6.57
2018-04-29T08:49:37.037Z,6.20
2018-04-29T08:52:04.783Z,5.63
2018-04-29T08:54:32.369Z,5.67
2018-04-29T08:57:00.106Z,5.60
2018-04-29T08:59:27.654Z,5.90
2018-04-29T09:01:55.229Z,6.90
2018-04-29T09:04:22.769Z,5.20
2018-04-29T09:06:50.336Z,6.10
2018-04-29T09:09:17.884Z,5.40
2018-04-29T09:11:45.452Z,6.17
2018-04-29T09:14:12.997Z,6.43
2018-04-29T09:16:40.589Z,5.27
2018-04-29T09:19:08.137Z,5.30
2018-04-29T09:21:35.704Z,5.50
2018-04-29T09:24:03.276Z,5.60
2018-04-29T09:26:30.825Z,6.10
2018-04-29T09:28:58.395Z,6.30
2018-04-29T09:31:25.949Z,5.40
2018-04-29T09:33:53.524Z,5.40
2018-04-29T09:36:21.072Z,5.20
2018-04-29T09:38:48.649Z,5.50
2018-04-29T09:41:16.912Z,4.50
2018-04-29T09:43:44.566Z,5.10
2018-04-29T09:46:12.890Z,4.67
2018-04-29T09:48:40.484Z,5.00
2018-04-29T09:51:08.026Z,3.90
2018-04-29T09:53:35.596Z,4.57
2018-04-29T09:56:03.149Z,4.40
2018-04-29T09:58:30.712Z,4.77
2018-04-29T10:00:58.330Z,4.03
2018-04-29T10:03:26.061Z,3.63
2018-04-29T10:05:53.605Z,4.10
2018-04-29T10:08:21.185Z,3.60
2018-04-29T10:10:49.829Z,3.33
2018-04-29T10:13:17.441Z,3.80
2018-04-29T10:15:45.028Z,3.47
2018-04-29T10:18:12.603Z,3.70
2018-04-29T10:20:40.147Z,4.20
2018-04-29T10:23:07.713Z,3.80
2018-04-29T10:25:35.440Z,3.80
2018-04-29T10:28:03.021Z,4.10
2018-04-29T10:30:31.337Z,3.80
2018-04-29T10:32:58.977Z,3.30
2018-04-29T10:35:32.212Z,4.10
2018-04-29T10:37:59.818Z,3.50
2018-04-29T10:40:27.372Z,3.93
2018-04-29T10:42:54.949Z,3.77
2018-04-29T10:45:22.489Z,3.43
2018-04-29T10:47:52.355Z,3.40
2018-04-29T10:50:20.281Z,3.40
2018-04-29T10:52:48.802Z,3.60
2018-04-29T10:55:16.347Z,3.27
2018-04-29T10:57:43.910Z,3.50
2018-04-29T11:00:11.461Z,4.33
2018-04-29T11:02:39.028Z,4.17
2018-04-29T11:05:10.016Z,3.50
2018-04-29T11:07:41.353Z,3.87
2018-04-29T11:10:12.113Z,3.90
2018-04-29T11:12:41.732Z,3.57
2018-04-29T11:15:12.714Z,4.30
2018-04-29T11:17:40.261Z,3.17
2018-04-29T11:20:07.832Z,3.90
2018-04-29T11:22:35.383Z,3.57
2018-04-29T11:25:02.970Z,3.63
2018-04-29T11:27:31.277Z,2.83
2018-04-29T11:29:58.841Z,3.10
2018-04-29T11:32:26.393Z,4.40
2018-04-29T11:34:53.957Z,3.03
2018-04-29T11:37:21.504Z,3.10
2018-04-29T11:39:49.301Z,3.27
2018-04-29T11:42:16.845Z,4.20
2018-04-29T11:44:44.410Z,3.20
2018-04-29T11:47:11.979Z,4.20
2018-04-29T11:49:39.560Z,3.30
2018-04-29T11:52:07.108Z,3.30
2018-04-29T11:54:34.677Z,3.87
2018-04-29T11:57:02.232Z,4.07
2018-04-29T11:59:29.808Z,3.53
2018-04-29T12:01:57.450Z,3.80
2018-04-29T12:04:25.723Z,3.20
2018-04-29T12:06:53.288Z,2.83
2018-04-29T12:09:20.860Z,3.43
2018-04-29T12:11:48.407Z,3.43
2018-04-29T12:14:15.977Z,4.20
2018-04-29T12:16:43.528Z,3.57
2018-04-29T12:19:11.529Z,3.90
2018-04-29T12:21:39.094Z,3.10
2018-04-29T12:24:06.672Z,3.70
2018-04-29T12:26:34.216Z,3.30
2018-04-29T12:29:01.789Z,3.77
2018-04-29T12:31:29.329Z,4.80
2018-04-29T12:33:56.905Z,3.70
2018-04-29T12:36:24.452Z,3.10
2018-04-29T12:38:52.060Z,2.93
2018-04-29T12:41:19.600Z,2.80
2018-04-29T12:43:47.144Z,3.40
2018-04-29T12:46:14.712Z,3.03
2018-04-29T12:48:42.255Z,2.90
2018-04-29T12:51:09.859Z,3.10
2018-04-29T12:53:37.408Z,2.13
2018-04-29T12:56:04.988Z,3.60
2018-04-29T12:58:32.536Z,2.50
2018-04-29T13:01:00.105Z,2.63
2018-04-29T13:03:27.653Z,2.57
2018-04-29T13:05:55.229Z,2.40
2018-04-29T13:08:23.649Z,3.17
2018-04-29T13:10:51.220Z,2.90
2018-04-29T13:13:18.773Z,3.13
2018-04-29T13:15:46.337Z,2.80
2018-04-29T13:18:13.878Z,3.40
2018-04-29T13:20:41.450Z,3.07
2018-04-29T13:23:08.991Z,2.27
2018-04-29T13:25:36.562Z,2.00
2018-04-29T13:28:04.104Z,1.87
2018-04-29T13:30:31.668Z,2.60
2018-04-29T13:32:59.236Z,2.53
2018-04-29T13:35:26.809Z,2.67
2018-04-29T13:37:54.349Z,2.20
2018-04-29T13:40:21.920Z,2.17
2018-04-29T13:42:49.466Z,3.33
2018-04-29T13:45:17.050Z,2.27
2018-04-29T13:47:44.593Z,1.93
2018-04-29T13:50:12.161Z,3.17
2018-04-29T13:52:40.104Z,2.93
2018-04-29T13:55:07.671Z,2.50
2018-04-29T13:57:35.232Z,2.53
2018-04-29T14:00:02.813Z,2.50
2018-04-29T14:02:30.384Z,2.30
2018-04-29T14:04:57.948Z,2.40
2018-04-29T14:07:25.488Z,2.40
2018-04-29T14:09:53.835Z,3.17
2018-04-29T14:12:21.384Z,3.70
2018-04-29T14:14:48.935Z,2.27
2018-04-29T14:17:16.506Z,2.57
2018-04-29T14:19:44.044Z,2.53
2018-04-29T14:22:11.641Z,2.80
2018-04-29T14:24:39.395Z,2.63
2018-04-29T14:27:06.961Z,3.03
2018-04-29T14:29:34.503Z,2.97
2018-04-29T14:32:02.082Z,2.80
2018-04-29T14:34:29.645Z,3.80
2018-04-29T14:36:57.214Z,2.47
2018-04-29T14:39:24.756Z,2.43
2018-04-29T14:41:52.324Z,2.50
2018-04-29T14:44:19.871Z,4.70
2018-04-29T14:46:47.439Z,3.57
2018-04-29T14:49:14.993Z,3.17
2018-04-29T14:51:42.560Z,2.53
2018-04-29T14:54:11.337Z,2.57
2018-04-29T14:56:38.905Z,4.07
2018-04-29T14:59:06.453Z,3.10
2018-04-29T15:01:34.061Z,2.83
2018-04-29T15:04:01.609Z,3.00
2018-04-29T15:06:29.180Z,3.30
2018-04-29T15:08:56.731Z,2.60
2018-04-29T15:11:24.307Z,2.73
2018-04-29T15:13:51.856Z,2.80
2018-04-29T15:16:19.422Z,2.83
2018-04-29T15:18:59.627Z,3.03
2018-04-29T15:21:27.197Z,2.97
2018-04-29T15:23:54.748Z,2.40
2018-04-29T15:26:22.313Z,2.37
2018-04-29T15:28:49.865Z,2.87
2018-04-29T15:31:17.492Z,2.90
2018-04-29T15:33:45.041Z,2.40
2018-04-29T15:36:13.373Z,2.33
2018-04-29T15:38:40.933Z,2.67
2018-04-29T15:41:08.504Z,2.97
2018-04-29T15:43:36.048Z,2.80
2018-04-29T15:46:03.660Z,2.60
2018-04-29T15:48:31.976Z,2.70
2018-04-29T15:50:59.540Z,2.60
2018-04-29T15:53:27.871Z,2.63
2018-04-29T15:55:55.423Z,2.53
2018-04-29T15:58:22.988Z,2.20
2018-04-29T16:00:51.296Z,2.33
2018-04-29T16:03:18.860Z,2.57
2018-04-29T16:05:46.408Z,3.80
2018-04-29T16:08:14.020Z,3.20
2018-04-29T16:10:41.569Z,3.13
2018-04-29T16:13:09.168Z,2.60
2018-04-29T16:15:36.718Z,3.80
2018-04-29T16:18:05.057Z,2.63
2018-04-29T16:20:32.616Z,2.83
2018-04-29T16:23:00.201Z,2.80
2018-04-29T16:25:27.776Z,3.03
2018-04-29T16:27:55.340Z,2.83
2018-04-29T16:30:22.888Z,3.70
2018-04-29T16:32:50.456Z,3.03
2018-04-29T16:35:18.026Z,3.23
2018-04-29T16:37:46.044Z,3.53
2018-04-29T16:40:13.598Z,3.00
2018-04-29T16:42:41.169Z,2.43
2018-04-29T16:45:08.780Z,3.17
2018-04-29T16:47:37.085Z,3.30
2018-04-29T16:50:04.629Z,2.83
2018-04-29T16:52:32.213Z,3.20
2018-04-29T16:54:59.765Z,3.03
2018-04-29T16:57:27.349Z,3.47
2018-04-29T16:59:54.924Z,3.30
2018-04-29T17:02:23.268Z,3.00
2018-04-29T17:04:50.817Z,3.13
2018-04-29T17:07:18.385Z,2.90
2018-04-29T17:09:45.993Z,2.90
2018-04-29T17:12:13.558Z,3.73
2018-04-29T17:14:41.441Z,3.07
2018-04-29T17:17:09.092Z,4.30
2018-04-29T17:19:36.577Z,5.27
2018-04-29T17:22:04.148Z,4.87
2018-04-29T17:24:31.697Z,5.70
2018-04-29T17:26:59.268Z,4.00
2018-04-29T17:29:26.874Z,13.40
2018-04-29T17:31:54.410Z,9.63
2018-04-29T17:34:22.788Z,4.13
2018-04-29T17:36:50.340Z,9.67
2018-04-29T17:39:17.920Z,20.70
2018-04-29T17:41:45.469Z,5.10
2018-04-29T17:44:13.089Z,12.90
2018-04-29T17:46:40.989Z,8.20
2018-04-29T17:49:08.556Z,4.90
2018-04-29T17:51:36.124Z,4.00
2018-04-29T17:54:03.701Z,3.23
2018-04-29T17:56:31.302Z,3.67
2018-04-29T17:58:58.880Z,15.73
2018-04-29T18:01:27.289Z,10.80
2018-04-29T18:03:54.805Z,18.10
2018-04-29T18:06:22.357Z,4.43
2018-04-29T18:08:49.932Z,5.87
2018-04-29T18:11:17.481Z,3.73
2018-04-29T18:13:45.057Z,3.93
2018-04-29T18:16:13.395Z,2.90
2018-04-29T18:18:40.968Z,3.30
2018-04-29T18:21:08.564Z,3.53
2018-04-29T18:23:36.135Z,4.07
2018-04-29T18:26:03.686Z,3.33
2018-04-29T18:28:31.320Z,3.80
2018-04-29T18:31:00.208Z,4.30
2018-04-29T18:33:29.236Z,4.20
2018-04-29T18:35:56.851Z,4.27
2018-04-29T18:38:24.417Z,3.70
2018-04-29T18:40:51.965Z,4.00
2018-04-29T18:43:19.541Z,4.33
2018-04-29T18:45:48.716Z,6.50
2018-04-29T18:48:16.396Z,4.23
2018-04-29T18:50:44.485Z,3.57
2018-04-29T18:53:12.056Z,4.10
2018-04-29T18:55:39.596Z,4.33
2018-04-29T18:58:07.176Z,4.10
2018-04-29T19:00:34.720Z,3.03
2018-04-29T19:03:03.315Z,4.37
2018-04-29T19:05:52.850Z,4.47
2018-04-29T19:08:20.801Z,4.90
2018-04-29T19:10:48.741Z,3.70
2018-04-29T19:13:16.373Z,5.00
2018-04-29T19:15:44.183Z,4.20
2018-04-29T19:18:12.659Z,4.50
2018-04-29T19:20:40.340Z,3.60
2018-04-29T19:23:08.683Z,4.10
2018-04-29T19:25:36.260Z,3.93
2018-04-29T19:28:03.880Z,4.17
2018-04-29T19:30:31.681Z,4.40
2018-04-29T19:32:59.497Z,4.20
2018-04-29T19:35:27.445Z,5.07
2018-04-29T19:37:55.449Z,4.37
2018-04-29T19:40:23.580Z,4.20
2018-04-29T19:42:51.678Z,4.00
2018-04-29T19:45:20.827Z,3.63
2018-04-29T19:47:48.728Z,4.60
2018-04-29T19:50:16.585Z,3.63
2018-04-29T19:52:44.659Z,3.40
2018-04-29T19:55:13.126Z,4.40
2018-04-29T19:57:41.095Z,4.30
2018-04-29T20:00:09.721Z,3.57
2018-04-29T20:02:37.879Z,3.30
2018-04-29T20:05:05.744Z,4.00
2018-04-29T20:07:35.084Z,3.93
2018-04-29T20:10:03.742Z,3.70
2018-04-29T20:12:31.416Z,5.23
2018-04-29T20:14:58.988Z,3.93
2018-04-29T20:17:26.784Z,4.87
2018-04-29T20:19:54.672Z,3.23
2018-04-29T20:22:22.734Z,3.43
2018-04-29T20:24:50.326Z,4.40
2018-04-29T20:27:18.241Z,4.50
2018-04-29T20:29:46.919Z,4.60
2018-04-29T20:32:21.220Z,4.90
2018-04-29T20:34:48.878Z,5.00
2018-04-29T20:37:16.555Z,5.00
2018-04-29T20:39:44.264Z,5.03
2018-04-29T20:42:12.619Z,4.23
2018-04-29T20:44:40.239Z,3.93
2018-04-29T20:47:08.128Z,3.50
2018-04-29T20:49:35.776Z,4.13
2018-04-29T20:52:03.688Z,4.73
2018-04-29T20:54:31.800Z,4.60
2018-04-29T20:56:59.787Z,4.67
2018-04-29T20:59:27.513Z,4.23
2018-04-29T21:01:55.151Z,4.20
2018-04-29T21:04:22.785Z,3.93
2018-04-29T21:06:50.432Z,4.70
2018-04-29T21:09:18.429Z,4.53
2018-04-29T21:11:46.317Z,4.13
2018-04-29T21:14:14.153Z,4.00
2018-04-29T21:16:41.720Z,3.83
2018-04-29T21:19:09.261Z,4.40
2018-04-29T21:21:36.832Z,3.97
2018-04-29T21:24:04.376Z,4.30
2018-04-29T21:26:31.944Z,4.60
2018-04-29T21:29:00.257Z,4.30
2018-04-29T21:31:27.828Z,4.10
2018-04-29T21:33:55.371Z,3.73
2018-04-29T21:36:23.708Z,3.93
2018-04-29T21:38:51.704Z,4.73
2018-04-29T21:41:19.274Z,4.33
2018-04-29T21:43:47.583Z,4.90
2018-04-29T21:46:15.149Z,4.90
2018-04-29T21:48:42.687Z,4.17
2018-04-29T21:51:10.275Z,4.60
2018-04-29T21:53:37.824Z,5.90
2018-04-29T21:56:05.398Z,5.03
2018-04-29T21:58:32.953Z,5.50
2018-04-29T22:01:00.522Z,6.03
2018-04-29T22:03:28.066Z,6.10
2018-04-29T22:05:55.643Z,6.00
2018-04-29T22:08:23.193Z,6.13
2018-04-29T22:10:50.764Z,5.17
2018-04-29T22:13:18.308Z,4.60
2018-04-29T22:15:45.878Z,4.47
2018-04-29T22:18:13.425Z,4.10
2018-04-29T22:20:40.997Z,4.60
2018-04-29T22:23:08.540Z,4.43
2018-04-29T22:25:36.113Z,6.00
2018-04-29T22:28:03.663Z,3.50
2018-04-29T22:30:31.237Z,4.13
2018-04-29T22:32:58.787Z,4.33
2018-04-29T22:35:27.120Z,4.07
2018-04-29T22:37:54.687Z,3.50
2018-04-29T22:40:22.259Z,3.80
2018-04-29T22:42:49.832Z,4.10
2018-04-29T22:45:18.141Z,3.60
2018-04-29T22:47:45.713Z,3.23
2018-04-29T22:50:13.488Z,4.40
2018-04-29T22:52:41.061Z,3.80
2018-04-29T22:55:08.609Z,3.43
2018-04-29T22:57:36.173Z,3.47
2018-04-29T23:00:03.715Z,2.77
2018-04-29T23:02:32.048Z,2.80
2018-04-29T23:04:59.597Z,2.93
2018-04-29T23:07:27.348Z,2.70
2018-04-29T23:09:54.889Z,3.10
2018-04-29T23:12:22.456Z,2.77
2018-04-29T23:14:50.001Z,1.80
2018-04-29T23:17:17.569Z,1.57
2018-04-29T23:19:45.423Z,1.60
2018-04-29T23:22:12.984Z,1.80
2018-04-29T23:24:40.524Z,1.20
2018-04-29T23:27:08.101Z,1.60
2018-04-29T23:29:35.664Z,1.67
2018-04-29T23:32:03.227Z,1.43
2018-04-29T23:34:30.774Z,1.17
2018-04-29T23:36:58.339Z,0.90
2018-04-29T23:39:25.879Z,1.50
2018-04-29T23:41:54.213Z,1.00
2018-04-29T23:44:21.758Z,1.47
2018-04-29T23:46:49.320Z,1.00
2018-04-29T23:49:16.866Z,1.10
2018-04-29T23:51:44.504Z,1.20
2018-04-29T23:54:14.971Z,1.30
2018-04-29T23:56:42.537Z,1.13
2018-04-29T23:59:10.253Z,1.20
